Time;durP1;ratioP1;P1;durP2;ratioP2;P2;SDS_P1;SDS_P2;PMS_P1;PMS_P2;Temp;Humidity;BMP_temperature;BMP_pressure;BME280_temperature;BME280_humidity;BME280_pressure;Samples;Min_cycle;Max_cycle;Signal;HPM_P1;HPM_P2
2021/01/04 00:00:47;;;;;;;9.52;5.40;;;154.00;2252.80;;;;;;5115741;28;20486;-64
2021/01/04 00:03:32;;;;;;;9.48;5.93;;;154.00;2252.80;;;;;;5114869;28;20031;-63
2021/01/04 00:06:18;;;;;;;11.73;5.50;;;154.10;2252.80;;;;;;5112093;28;20024;-65
2021/01/04 00:09:24;;;;;;;10.63;5.95;;;154.00;2252.80;;;;;;5102155;28;20024;-64
2021/01/04 00:12:20;;;;;;;11.02;4.80;;;154.00;2252.80;;;;;;5115204;28;20099;-64
2021/01/04 00:14:57;;;;;;;8.27;4.65;;;154.00;2252.80;;;;;;5115009;28;20027;-64
2021/01/04 00:17:55;;;;;;;7.85;5.10;;;154.10;2252.80;;;;;;5117458;28;20467;-64
2021/01/04 00:20:36;;;;;;;8.57;4.90;;;154.20;2252.80;;;;;;5118576;28;20027;-64
2021/01/04 00:23:05;;;;;;;8.82;5.13;;;154.30;2252.80;;;;;;5117872;28;20027;-63
2021/01/04 00:25:47;;;;;;;7.80;4.70;;;154.30;2252.80;;;;;;5117857;28;20114;-64
2021/01/04 00:28:18;;;;;;;8.40;4.75;;;154.30;2252.80;;;;;;5118329;28;20041;-63
2021/01/04 00:30:52;;;;;;;8.68;5.13;;;154.30;2252.80;;;;;;5117847;28;20027;-64
2021/01/04 00:33:28;;;;;;;10.27;6.00;;;154.40;2252.80;;;;;;5118366;28;20023;-63
2021/01/04 00:35:58;;;;;;;15.35;7.53;;;154.40;2252.80;;;;;;5118045;28;20048;-64
2021/01/04 00:38:51;;;;;;;15.88;7.22;;;154.50;2252.80;;;;;;5117378;28;20024;-63
2021/01/04 00:41:26;;;;;;;15.90;7.03;;;154.50;2252.80;;;;;;5118149;28;20027;-63
2021/01/04 00:43:56;;;;;;;13.43;8.25;;;154.50;2252.80;;;;;;5117645;28;20019;-64
2021/01/04 00:46:30;;;;;;;14.68;7.78;;;179.20;2252.80;;;;;;5117295;28;20459;-63
2021/01/04 00:49:17;;;;;;;17.27;10.70;;;179.20;2252.80;;;;;;5117880;28;20072;-64
2021/01/04 00:51:54;;;;;;;13.45;7.40;;;179.20;2252.80;;;;;;5117468;28;20045;-64
2021/01/04 00:55:01;;;;;;;17.45;8.85;;;179.40;2252.80;;;;;;5117565;28;20026;-64
2021/01/04 00:57:53;;;;;;;13.63;6.10;;;179.40;2252.80;;;;;;5034446;28;20370;-63
2021/01/04 01:00:27;;;;;;;24.05;10.88;;;179.50;2252.80;;;;;;5034895;28;20084;-63
2021/01/04 01:02:59;;;;;;;19.55;7.38;;;179.50;2252.80;;;;;;5035151;28;20120;-64
2021/01/04 01:05:51;;;;;;;35.40;16.63;;;179.60;2252.80;;;;;;5034739;28;20037;-64
2021/01/04 01:08:24;;;;;;;21.10;10.73;;;179.60;2252.80;;;;;;5034788;28;20474;-63
2021/01/04 01:10:59;;;;;;;15.00;7.35;;;179.60;2252.80;;;;;;5035076;28;20061;-64
2021/01/04 01:14:02;;;;;;;9.90;5.78;;;179.60;2252.80;;;;;;5034235;28;20043;-63
2021/01/04 01:16:56;;;;;;;11.90;7.13;;;179.70;2252.80;;;;;;5034674;28;20037;-63
2021/01/04 01:19:45;;;;;;;24.33;11.65;;;179.90;2252.80;;;;;;5034501;28;20357;-64
2021/01/04 01:22:19;;;;;;;16.48;8.00;;;180.00;2252.80;;;;;;5034919;28;20055;-65
2021/01/04 01:24:45;;;;;;;12.55;7.80;;;180.10;2252.80;;;;;;5038166;28;20025;-64
2021/01/04 01:27:35;;;;;;;7.97;4.95;;;179.90;2252.80;;;;;;5038148;28;20128;-63
2021/01/04 01:30:17;;;;;;;8.70;5.30;;;179.90;2252.80;;;;;;5038884;28;20431;-63
2021/01/04 01:32:45;;;;;;;10.23;5.93;;;180.10;2252.80;;;;;;5047931;28;20470;-64
2021/01/04 01:35:21;;;;;;;15.80;8.20;;;180.10;2252.80;;;;;;5121324;28;20192;-63
2021/01/04 01:38:17;;;;;;;20.50;9.02;;;204.80;2252.80;;;;;;5121346;28;20035;-63
2021/01/04 01:41:01;;;;;;;12.52;5.13;;;180.10;2252.80;;;;;;5121017;28;20030;-63
2021/01/04 01:43:46;;;;;;;14.63;5.93;;;180.10;2252.80;;;;;;5120678;28;20026;-63
2021/01/04 01:46:21;;;;;;;14.57;6.00;;;180.10;2252.80;;;;;;5120893;28;20382;-63
2021/01/04 01:49:01;;;;;;;12.90;5.85;;;180.10;2252.80;;;;;;5120591;28;20401;-65
2021/01/04 01:52:18;;;;;;;12.00;4.90;;;204.80;2252.80;;;;;;5121105;28;20026;-64
2021/01/04 01:55:00;;;;;;;8.65;4.53;;;204.80;2252.80;;;;;;5085572;28;20023;-64
2021/01/04 01:58:03;;;;;;;5.40;3.28;;;204.90;2252.80;;;;;;5121001;28;20486;-64
2021/01/04 02:00:42;;;;;;;26.00;12.70;;;205.00;2252.80;;;;;;5120981;28;20401;-64
2021/01/04 02:03:22;;;;;;;14.27;7.13;;;205.00;2252.80;;;;;;5120659;28;20111;-63
2021/01/04 02:05:48;;;;;;;7.68;4.70;;;204.80;2252.80;;;;;;5121131;28;20019;-64
2021/01/04 02:08:24;;;;;;;8.23;4.65;;;204.80;2252.80;;;;;;5119817;28;20035;-64
2021/01/04 02:10:53;;;;;;;10.15;4.45;;;204.90;2252.80;;;;;;5121076;28;20031;-64
2021/01/04 02:13:47;;;;;;;6.22;3.83;;;205.00;2252.80;;;;;;5120386;28;20076;-64
2021/01/04 02:16:20;;;;;;;11.15;5.82;;;205.00;2252.80;;;;;;5120374;28;20034;-64
2021/01/04 02:19:08;;;;;;;18.98;9.18;;;205.00;2252.80;;;;;;5120352;28;20111;-64
2021/01/04 02:21:55;;;;;;;10.93;5.40;;;205.10;2252.80;;;;;;5120264;28;20305;-64
2021/01/04 02:24:23;;;;;;;8.60;4.90;;;205.20;2252.80;;;;;;5120593;28;20259;-65
2021/01/04 02:27:01;;;;;;;7.78;4.30;;;205.20;2252.80;;;;;;5120605;28;20040;-65
2021/01/04 02:29:28;;;;;;;7.80;4.15;;;205.30;2252.80;;;;;;5120516;28;20113;-65
2021/01/04 02:32:00;;;;;;;15.88;8.93;;;205.40;2252.80;;;;;;5120549;28;20020;-64
2021/01/04 02:34:37;;;;;;;17.65;9.40;;;205.20;2252.80;;;;;;5119742;28;20026;-65
2021/01/04 02:37:04;;;;;;;8.60;5.40;;;205.30;2252.80;;;;;;5119680;28;20055;-64
2021/01/04 02:39:42;;;;;;;9.73;5.72;;;205.30;2252.80;;;;;;5119894;28;20436;-65
2021/01/04 02:42:33;;;;;;;11.43;6.70;;;205.20;2252.80;;;;;;5120244;28;20074;-64
2021/01/04 02:45:06;;;;;;;12.75;6.20;;;205.30;2252.80;;;;;;5119843;28;20023;-63
2021/01/04 02:47:49;;;;;;;10.32;4.95;;;205.20;2252.80;;;;;;5120414;28;20047;-64
2021/01/04 02:50:31;;;;;;;10.18;5.43;;;205.30;2252.80;;;;;;5120024;28;20393;-65
2021/01/04 02:53:05;;;;;;;7.28;4.95;;;205.20;2252.80;;;;;;5119662;27;20406;-64
2021/01/04 02:55:50;;;;;;;6.47;3.95;;;205.30;2252.80;;;;;;5118525;28;20441;-64
2021/01/04 02:58:33;;;;;;;6.60;4.00;;;205.50;2252.80;;;;;;5119290;28;20059;-64
2021/01/04 03:01:23;;;;;;;5.93;3.85;;;205.40;2252.80;;;;;;5119739;28;20490;-64
2021/01/04 03:03:49;;;;;;;6.28;3.65;;;205.50;2252.80;;;;;;5118582;28;20429;-64
2021/01/04 03:06:32;;;;;;;5.68;3.17;;;205.50;2252.80;;;;;;5119208;28;20042;-64
2021/01/04 03:08:57;;;;;;;5.65;3.13;;;205.50;2252.80;;;;;;5119385;28;20026;-64
2021/01/04 03:11:27;;;;;;;5.75;3.53;;;205.70;2227.20;;;;;;5119589;28;20372;-63
2021/01/04 03:13:56;;;;;;;6.15;3.00;;;230.40;2227.20;;;;;;5119511;28;20051;-63
2021/01/04 03:16:45;;;;;;;6.07;3.63;;;230.40;2201.60;;;;;;5119479;28;20031;-63
2021/01/04 03:19:12;;;;;;;;;;;230.50;2201.60;;;;;;5079318;28;20119;-63
2021/01/04 03:21:40;;;;;;;6.32;3.63;;;230.60;2201.60;;;;;;5118732;28;20284;-64
2021/01/04 03:24:16;;;;;;;9.10;5.15;;;230.50;2201.60;;;;;;5118786;28;20030;-64
2021/01/04 03:26:54;;;;;;;6.97;3.22;;;230.40;2201.60;;;;;;5119435;28;20412;-65
2021/01/04 03:29:20;;;;;;;5.65;3.47;;;230.50;2201.60;;;;;;5119443;28;20428;-64
2021/01/04 03:31:46;;;;;;;5.00;3.10;;;230.50;2201.60;;;;;;5118515;28;20027;-64
2021/01/04 03:34:12;;;;;;;5.72;3.60;;;230.60;2176.00;;;;;;5118733;28;20023;-64
2021/01/04 03:36:37;;;;;;;4.88;3.22;;;205.70;2227.20;;;;;;5119067;28;20031;-65
2021/01/04 03:39:04;;;;;;;4.95;3.33;;;205.70;2252.80;;;;;;5118416;28;20027;-63
2021/01/04 03:41:29;;;;;;;5.43;3.22;;;205.60;2252.80;;;;;;5119220;28;20020;-65
2021/01/04 03:43:56;;;;;;;4.25;2.90;;;205.20;2252.80;;;;;;5118962;28;20024;-64
2021/01/04 03:46:22;;;;;;;6.60;3.15;;;205.10;2252.80;;;;;;5117632;28;20052;-63
2021/01/04 03:48:47;;;;;;;4.75;2.90;;;205.00;2252.80;;;;;;5118768;28;20424;-64
2021/01/04 03:51:13;;;;;;;4.75;2.85;;;205.20;2252.80;;;;;;5118468;28;20332;-65
2021/01/04 03:53:42;;;;;;;5.63;3.53;;;205.40;2252.80;;;;;;5118497;28;20053;-65
2021/01/04 03:56:20;;;;;;;5.38;2.70;;;205.30;2252.80;;;;;;5118948;28;20058;-64
2021/01/04 03:58:46;;;;;;;5.50;2.90;;;205.30;2252.80;;;;;;5118689;28;20051;-64
2021/01/04 04:01:12;;;;;;;4.80;2.80;;;205.30;2252.80;;;;;;5118288;28;20024;-64
2021/01/04 04:03:38;;;;;;;4.97;2.90;;;205.30;2252.80;;;;;;5118296;27;20026;-65
2021/01/04 04:06:04;;;;;;;5.28;3.05;;;205.40;2252.80;;;;;;5118185;28;20313;-65
2021/01/04 04:08:30;;;;;;;4.78;2.83;;;205.50;2252.80;;;;;;5118707;28;20384;-65
2021/01/04 04:10:56;;;;;;;3.67;1.98;;;205.60;2252.80;;;;;;5118070;28;20059;-64
2021/01/04 04:13:22;;;;;;;5.68;2.78;;;230.40;2227.20;;;;;;5118110;28;20019;-64
2021/01/04 04:15:48;;;;;;;4.18;2.40;;;230.60;2227.20;;;;;;5118046;28;20034;-65
2021/01/04 04:18:14;;;;;;;2.88;1.80;;;230.70;2201.60;;;;;;5118072;28;20027;-63
2021/01/04 04:20:40;;;;;;;3.72;2.08;;;230.80;2201.60;;;;;;5118215;28;20034;-64
2021/01/04 04:23:05;;;;;;;6.32;2.65;;;230.90;2176.00;;;;;;5118213;28;20020;-64
2021/01/04 04:25:31;;;;;;;4.07;2.10;;;230.90;2201.60;;;;;;5118202;28;20427;-64
2021/01/04 04:27:57;;;;;;;3.67;2.00;;;230.90;2201.60;;;;;;5117754;28;20039;-64
2021/01/04 04:30:24;;;;;;;3.38;1.95;;;230.90;2201.60;;;;;;5118068;28;20038;-64
2021/01/04 04:32:57;;;;;;;4.70;1.90;;;230.90;2201.60;;;;;;5117297;28;20038;-65
2021/01/04 04:35:25;;;;;;;4.35;2.03;;;230.80;2201.60;;;;;;5117367;28;20131;-64
2021/01/04 04:37:51;;;;;;;3.15;1.92;;;230.90;2176.00;;;;;;5117489;28;20023;-63
2021/01/04 04:40:20;;;;;;;4.43;2.30;;;230.90;2176.00;;;;;;5117211;28;20064;-64
2021/01/04 04:42:47;;;;;;;2.97;1.65;;;230.90;2176.00;;;;;;5117298;28;20074;-64
2021/01/04 04:45:18;;;;;;;3.10;1.92;;;231.00;2176.00;;;;;;5117271;28;20107;-65
2021/01/04 04:48:00;;;;;;;3.30;2.28;;;231.00;2150.40;;;;;;5118098;28;20431;-64
2021/01/04 04:50:55;;;;;;;2.92;1.70;;;231.00;2150.40;;;;;;5118175;28;20034;-65
2021/01/04 04:53:43;;;;;;;3.65;2.03;;;231.00;2150.40;;;;;;5097464;28;20063;-65
2021/01/04 04:56:20;;;;;;;3.20;1.60;;;231.10;2150.40;;;;;;5096600;28;20023;-65
2021/01/04 04:59:05;;;;;;;3.80;1.75;;;231.00;2150.40;;;;;;5115469;28;20120;-64
2021/01/04 05:01:43;;;;;;;2.90;1.60;;;230.90;2176.00;;;;;;5115866;28;20038;-64
2021/01/04 05:04:39;;;;;;;2.50;1.50;;;231.00;2176.00;;;;;;5117306;28;20028;-65
2021/01/04 05:07:24;;;;;;;2.85;1.40;;;231.00;2150.40;;;;;;5117373;28;20348;-63
2021/01/04 05:10:23;;;;;;;2.80;1.42;;;231.20;2124.80;;;;;;5116924;28;20040;-64
2021/01/04 05:13:04;;;;;;;3.60;2.30;;;231.10;2124.80;;;;;;5117727;28;20027;-65
2021/01/04 05:16:11;;;;;;;4.32;1.98;;;231.20;2124.80;;;;;;5117664;28;20020;-64
2021/01/04 05:19:04;;;;;;;3.28;1.83;;;231.00;2150.40;;;;;;5116846;28;20039;-64
2021/01/04 05:21:52;;;;;;;2.17;1.42;;;230.80;2176.00;;;;;;5117127;28;20024;-64
2021/01/04 05:24:32;;;;;;;3.85;2.10;;;230.40;2227.20;;;;;;5117552;28;20431;-64
2021/01/04 05:27:17;;;;;;;5.28;2.60;;;230.40;2227.20;;;;;;5117397;28;20474;-63
2021/01/04 05:30:02;;;;;;;3.63;1.35;;;205.70;2252.80;;;;;;5117526;28;20028;-65
2021/01/04 05:32:49;;;;;;;3.80;1.40;;;205.70;2252.80;;;;;;5117076;28;20051;-63
2021/01/04 05:35:16;;;;;;;9.00;1.38;;;205.50;2252.80;;;;;;5117706;28;20082;-64
2021/01/04 05:38:00;;;;;;;9.57;8.10;;;205.40;2252.80;;;;;;5116760;28;20071;-64
2021/01/04 05:40:47;;;;;;;6.57;3.78;;;205.70;2252.80;;;;;;5117313;28;20174;-65
2021/01/04 05:43:33;;;;;;;8.77;1.80;;;205.70;2252.80;;;;;;5117625;28;20024;-65
2021/01/04 05:46:28;;;;;;;43.58;18.33;;;205.50;2252.80;;;;;;5102947;28;20055;-63
2021/01/04 05:48:56;;;;;;;7.80;3.03;;;205.40;2252.80;;;;;;5085644;28;20039;-64
2021/01/04 05:51:30;;;;;;;2.38;1.17;;;205.50;2252.80;;;;;;5116981;28;20019;-65
2021/01/04 05:53:56;;;;;;;10.63;2.28;;;205.50;2252.80;;;;;;5117311;28;20047;-64
2021/01/04 05:56:25;;;;;;;2.75;1.55;;;205.30;2252.80;;;;;;5116841;28;20405;-63
2021/01/04 05:58:52;;;;;;;2.63;1.75;;;205.40;2252.80;;;;;;5117234;28;20024;-64
2021/01/04 06:01:26;;;;;;;2.60;1.55;;;205.40;2252.80;;;;;;5117201;28;20024;-63
2021/01/04 06:03:56;;;;;;;3.58;2.00;;;205.30;2252.80;;;;;;5117436;28;20034;-64
2021/01/04 06:06:31;;;;;;;3.55;1.80;;;205.20;2252.80;;;;;;5116804;28;20026;-62
2021/01/04 06:09:03;;;;;;;3.88;1.90;;;205.30;2252.80;;;;;;5117138;28;20036;-64
2021/01/04 06:11:29;;;;;;;3.95;1.67;;;205.50;2252.80;;;;;;5120124;28;20034;-64
2021/01/04 06:14:03;;;;;;;3.63;2.00;;;205.50;2252.80;;;;;;5120652;28;20023;-65
2021/01/04 06:16:29;;;;;;;3.67;1.92;;;205.30;2252.80;;;;;;5120717;28;20027;-63
2021/01/04 06:19:03;;;;;;;14.90;8.50;;;205.30;2252.80;;;;;;5120891;28;20034;-64
2021/01/04 06:21:38;;;;;;;20.88;11.50;;;205.30;2252.80;;;;;;5120364;28;20023;-64
2021/01/04 06:24:05;;;;;;;5.97;2.13;;;205.50;2252.80;;;;;;5120530;28;20034;-63
2021/01/04 06:26:31;;;;;;;11.38;6.30;;;205.30;2252.80;;;;;;5120412;28;20118;-65
2021/01/04 06:29:08;;;;;;;6.25;4.10;;;205.20;2252.80;;;;;;5120407;28;20065;-64
2021/01/04 06:31:43;;;;;;;7.88;3.35;;;205.10;2252.80;;;;;;5120524;28;20023;-64
2021/01/04 06:34:38;;;;;;;6.57;2.28;;;205.00;2252.80;;;;;;5119815;28;20374;-64
2021/01/04 06:37:17;;;;;;;4.82;1.85;;;204.80;2252.80;;;;;;5118242;28;20050;-63
2021/01/04 06:39:44;;;;;;;6.38;3.80;;;180.00;2252.80;;;;;;5120546;28;20024;-63
2021/01/04 06:42:18;;;;;;;6.55;2.70;;;180.10;2252.80;;;;;;5119880;28;20118;-64
2021/01/04 06:45:18;;;;;;;15.07;8.52;;;204.80;2252.80;;;;;;5120164;28;20420;-64
2021/01/04 06:47:47;;;;;;;27.52;13.98;;;204.80;2252.80;;;;;;5119656;28;20134;-64
2021/01/04 06:50:39;;;;;;;;;;;205.00;2252.80;;;;;;5120462;28;20019;-65
2021/01/04 06:53:14;;;;;;;4.32;1.60;;;205.10;2252.80;;;;;;5095533;28;19904;-64
2021/01/04 06:56:00;;;;;;;15.48;9.90;;;205.00;2252.80;;;;;;5119635;28;20023;-63
2021/01/04 06:59:09;;;;;;;7.13;2.60;;;205.00;2252.80;;;;;;5119843;28;20138;-64
2021/01/04 07:02:00;;;;;;;22.58;13.50;;;204.90;2252.80;;;;;;5119890;28;20019;-63
2021/01/04 07:04:51;;;;;;;14.80;9.25;;;205.00;2252.80;;;;;;5120043;28;20016;-63
2021/01/04 07:07:44;;;;;;;102.22;70.93;;;205.20;2252.80;;;;;;5081083;28;20050;-64
2021/01/04 07:10:48;;;;;;;7.28;3.65;;;205.30;2252.80;;;;;;5119670;28;20024;-65
2021/01/04 07:13:19;;;;;;;5.88;3.20;;;205.20;2252.80;;;;;;5036620;28;20406;-64
2021/01/04 07:16:09;;;;;;;6.15;4.28;;;205.50;2252.80;;;;;;5036594;28;20168;-63
2021/01/04 07:18:53;;;;;;;9.60;7.13;;;205.50;2252.80;;;;;;5036867;28;20036;-65
2021/01/04 07:21:34;;;;;;;5.13;3.05;;;230.40;2252.80;;;;;;5036703;28;20454;-64
2021/01/04 07:24:46;;;;;;;4.25;2.60;;;205.50;2252.80;;;;;;5035913;28;20063;-64
2021/01/04 07:27:28;;;;;;;4.88;3.28;;;205.40;2252.80;;;;;;5030438;28;20041;-63
2021/01/04 07:30:19;;;;;;;4.43;2.47;;;205.40;2252.80;;;;;;5036368;28;20446;-63
2021/01/04 07:33:02;;;;;;;5.38;3.60;;;205.40;2252.80;;;;;;5033762;28;20037;-64
2021/01/04 07:36:10;;;;;;;5.72;4.32;;;205.60;2252.80;;;;;;5036426;28;20042;-63
2021/01/04 07:39:23;;;;;;;9.77;7.07;;;205.70;2252.80;;;;;;5036358;28;20447;-66
2021/01/04 07:42:04;;;;;;;9.20;4.75;;;205.60;2252.80;;;;;;5036324;28;20044;-63
2021/01/04 07:44:35;;;;;;;6.57;2.47;;;205.50;2252.80;;;;;;5036160;28;20035;-63
2021/01/04 07:47:27;;;;;;;4.90;2.65;;;205.40;2252.80;;;;;;5070453;28;20050;-64
2021/01/04 07:50:11;;;;;;;6.40;3.97;;;205.10;2252.80;;;;;;5080045;28;20039;-64
2021/01/04 07:53:06;;;;;;;14.77;7.15;;;205.00;2252.80;;;;;;5116120;28;20030;-65
2021/01/04 07:56:08;;;;;;;3.30;1.83;;;205.00;2252.80;;;;;;5115587;28;20042;-65
2021/01/04 07:58:37;;;;;;;2.35;1.38;;;205.00;2252.80;;;;;;5098042;28;20454;-65
2021/01/04 08:01:30;;;;;;;5.05;3.40;;;205.10;2252.80;;;;;;5097956;28;20486;-64
2021/01/04 08:04:37;;;;;;;9.10;7.40;;;204.90;2252.80;;;;;;5097290;28;20038;-64
2021/01/04 08:07:06;;;;;;;8.15;5.45;;;205.10;2252.80;;;;;;5096600;28;20032;-64
2021/01/04 08:09:56;;;;;;;16.38;8.18;;;205.30;2252.80;;;;;;5097621;28;20336;-65
2021/01/04 08:12:46;;;;;;;16.08;9.75;;;205.00;2252.80;;;;;;5097775;28;20028;-65
2021/01/04 08:15:45;;;;;;;16.20;7.45;;;205.00;2252.80;;;;;;5097363;28;20344;-65
2021/01/04 08:18:14;;;;;;;12.40;7.32;;;205.20;2252.80;;;;;;5097931;28;20031;-65
2021/01/04 08:20:50;;;;;;;37.10;22.77;;;205.40;2252.80;;;;;;5097915;28;20031;-65
2021/01/04 08:23:46;;;;;;;20.15;11.40;;;205.50;2252.80;;;;;;5098169;28;20110;-64
2021/01/04 08:26:41;;;;;;;6.70;4.93;;;205.40;2252.80;;;;;;5097491;28;20437;-65
2021/01/04 08:29:28;;;;;;;9.10;6.57;;;205.60;2252.80;;;;;;5097647;28;20039;-65
2021/01/04 08:32:22;;;;;;;6.43;3.58;;;205.70;2252.80;;;;;;5097347;28;20031;-65
2021/01/04 08:34:49;;;;;;;6.00;3.88;;;205.60;2252.80;;;;;;5097508;28;20020;-64
2021/01/04 08:37:31;;;;;;;9.15;5.30;;;205.40;2252.80;;;;;;5097607;28;20082;-64
2021/01/04 08:40:29;;;;;;;5.03;3.35;;;205.40;2252.80;;;;;;5097436;28;20032;-63
2021/01/04 08:43:08;;;;;;;5.07;2.50;;;205.50;2252.80;;;;;;5097189;28;20376;-64
2021/01/04 08:45:37;;;;;;;7.82;3.95;;;205.70;2252.80;;;;;;5097325;28;20097;-63
2021/01/04 08:48:22;;;;;;;4.28;2.40;;;230.50;2252.80;;;;;;5097443;28;20071;-64
2021/01/04 08:51:05;;;;;;;3.63;1.95;;;230.50;2252.80;;;;;;5097438;28;20391;-64
2021/01/04 08:53:30;;;;;;;5.93;2.40;;;230.60;2252.80;;;;;;5097515;28;20402;-63
2021/01/04 08:56:14;;;;;;;4.05;2.00;;;230.60;2252.80;;;;;;5097174;28;20078;-64
2021/01/04 08:58:45;;;;;;;4.97;2.55;;;230.60;2252.80;;;;;;5097997;28;20078;-65
2021/01/04 09:01:16;;;;;;;3.53;2.40;;;230.60;2252.80;;;;;;5097312;28;20026;-64
2021/01/04 09:03:42;;;;;;;9.18;2.80;;;230.80;2252.80;;;;;;5097632;28;20031;-64
2021/01/04 09:06:11;;;;;;;4.93;2.20;;;230.60;2252.80;;;;;;5097521;28;20024;-65
2021/01/04 09:08:38;;;;;;;;;;;230.50;2252.80;;;;;;5099191;28;20035;-64
2021/01/04 09:11:08;;;;;;;12.45;5.95;;;230.40;2252.80;;;;;;5115797;28;20209;-63
2021/01/04 09:13:35;;;;;;;24.75;14.95;;;230.50;2252.80;;;;;;5114043;28;20481;-64
2021/01/04 09:16:25;;;;;;;115.30;57.58;;;230.70;2252.80;;;;;;5116160;28;20032;-65
2021/01/04 09:19:04;;;;;;;148.85;84.78;;;231.00;2252.80;;;;;;5113389;28;20061;-64
2021/01/04 09:21:37;;;;;;;133.45;80.22;;;231.30;2252.80;;;;;;5115792;28;20016;-63
2021/01/04 09:24:24;;;;;;;230.60;142.23;;;231.30;2252.80;;;;;;5096934;28;20119;-64
2021/01/04 09:27:00;;;;;;;127.43;87.28;;;231.20;2252.80;;;;;;5095899;28;20364;-64
2021/01/04 09:29:33;;;;;;;86.13;55.63;;;231.10;2252.80;;;;;;5095561;28;20574;-64
2021/01/04 09:32:08;;;;;;;172.38;112.57;;;231.00;2252.80;;;;;;5096397;28;20031;-64
2021/01/04 09:34:34;;;;;;;400.45;274.15;;;231.20;2252.80;;;;;;5096544;28;20016;-65
2021/01/04 09:37:13;;;;;;;181.20;120.80;;;231.00;2252.80;;;;;;5096123;28;20131;-64
2021/01/04 09:39:41;;;;;;;69.88;48.30;;;231.00;2252.80;;;;;;5097060;28;20441;-64
2021/01/04 09:42:13;;;;;;;72.53;46.80;;;231.30;2252.80;;;;;;5096460;28;20035;-65
2021/01/04 09:44:39;;;;;;;59.17;43.80;;;231.20;2252.80;;;;;;5097321;28;20063;-63
2021/01/04 09:47:20;;;;;;;67.47;51.63;;;231.30;2252.80;;;;;;5100574;28;20040;-65
2021/01/04 09:49:51;;;;;;;9.45;4.78;;;256.10;2252.80;;;;;;5100252;28;20378;-65
2021/01/04 09:52:23;;;;;;;15.75;7.35;;;231.30;2252.80;;;;;;5100155;28;20051;-63
2021/01/04 09:54:52;;;;;;;12.80;6.15;;;231.20;2252.80;;;;;;5100404;28;20024;-64
2021/01/04 09:57:20;;;;;;;5.28;3.60;;;231.10;2252.80;;;;;;5100376;28;20032;-63
2021/01/04 09:59:46;;;;;;;7.10;3.65;;;231.20;2252.80;;;;;;5100326;28;20024;-64
2021/01/04 10:02:32;;;;;;;9.70;6.05;;;231.30;2252.80;;;;;;5103224;28;20456;-64
2021/01/04 10:05:13;;;;;;;15.68;6.10;;;256.00;2252.80;;;;;;5116988;28;20136;-65
2021/01/04 10:07:40;;;;;;;17.90;11.55;;;256.10;2252.80;;;;;;5116145;28;20118;-63
2021/01/04 10:10:13;;;;;;;10.45;5.95;;;231.00;2252.80;;;;;;5099118;28;20415;-65
2021/01/04 10:12:39;;;;;;;5.97;4.28;;;231.10;2252.80;;;;;;5099492;28;20378;-64
2021/01/04 10:15:15;;;;;;;5.95;4.32;;;231.30;2252.80;;;;;;5100048;28;20020;-65
2021/01/04 10:17:44;;;;;;;8.18;7.35;;;256.20;2252.80;;;;;;5099952;28;20020;-65
2021/01/04 10:20:36;;;;;;;10.43;6.47;;;256.20;2252.80;;;;;;5099949;28;20080;-64
2021/01/04 10:23:02;;;;;;;15.27;13.48;;;256.20;2252.80;;;;;;5100271;28;20024;-65
2021/01/04 10:25:39;;;;;;;5.60;3.10;;;256.20;2252.80;;;;;;5098797;28;20031;-65
2021/01/04 10:28:06;;;;;;;6.93;5.47;;;231.20;2252.80;;;;;;5099732;28;20093;-64
2021/01/04 10:30:32;;;;;;;8.88;7.97;;;256.20;2252.80;;;;;;5099719;28;20020;-64
2021/01/04 10:33:27;;;;;;;12.05;9.85;;;256.20;2252.80;;;;;;5098984;28;20333;-64
2021/01/04 10:36:22;;;;;;;4.40;2.05;;;256.10;2252.80;;;;;;5097169;28;20369;-64
2021/01/04 10:38:59;;;;;;;6.25;3.72;;;231.30;2252.80;;;;;;5097391;28;20036;-66
2021/01/04 10:41:30;;;;;;;5.55;3.13;;;231.00;2252.80;;;;;;5099766;28;20401;-66
2021/01/04 10:44:10;;;;;;;6.50;4.82;;;231.00;2252.80;;;;;;5099591;28;20111;-65
2021/01/04 10:46:45;;;;;;;8.10;5.25;;;231.30;2252.80;;;;;;5098057;28;20050;-64
2021/01/04 10:49:27;;;;;;;16.13;10.00;;;231.30;2252.80;;;;;;5099746;28;20120;-65
2021/01/04 10:51:55;;;;;;;23.25;15.07;;;231.20;2252.80;;;;;;5099326;28;20034;-64
2021/01/04 10:54:42;;;;;;;18.23;13.65;;;256.20;2252.80;;;;;;5098953;28;20028;-66
2021/01/04 10:57:28;;;;;;;10.77;6.68;;;256.30;2252.80;;;;;;5099064;28;20107;-66
2021/01/04 11:00:03;;;;;;;20.45;12.52;;;256.50;2252.80;;;;;;5099064;28;20078;-64
2021/01/04 11:02:43;;;;;;;8.10;4.75;;;256.30;2252.80;;;;;;5098732;28;20441;-64
2021/01/04 11:05:10;;;;;;;7.38;4.72;;;256.30;2252.80;;;;;;5099244;28;20026;-64
2021/01/04 11:07:36;;;;;;;5.55;3.50;;;256.30;2252.80;;;;;;5098853;28;20032;-66
2021/01/04 11:10:13;;;;;;;8.13;5.82;;;256.50;2252.80;;;;;;5098747;28;20414;-65
2021/01/04 11:12:50;;;;;;;4.10;2.85;;;256.80;2252.80;;;;;;5099298;28;20024;-66
2021/01/04 11:15:29;;;;;;;2.58;1.55;;;256.70;2252.80;;;;;;5099074;28;20020;-66
2021/01/04 11:18:07;;;;;;;3.08;1.63;;;256.30;2252.80;;;;;;5099058;28;20032;-65
2021/01/04 11:20:35;;;;;;;2.63;1.40;;;256.30;2252.80;;;;;;5098708;28;20043;-65
2021/01/04 11:23:14;;;;;;;5.10;2.47;;;256.30;2252.80;;;;;;5099101;28;20055;-65
2021/01/04 11:25:41;;;;;;;2.38;1.25;;;256.40;2252.80;;;;;;5098422;28;20020;-66
2021/01/04 11:28:08;;;;;;;9.35;2.60;;;256.30;2252.80;;;;;;5099682;28;20085;-66
2021/01/04 11:30:34;;;;;;;5.70;1.75;;;256.30;2252.80;;;;;;5117604;28;20027;-65
2021/01/04 11:33:01;;;;;;;3.80;1.30;;;256.30;2252.80;;;;;;5117603;28;20020;-66
2021/01/04 11:35:30;;;;;;;4.43;1.40;;;256.00;2252.80;;;;;;5117567;28;20027;-67
2021/01/04 11:37:58;;;;;;;6.00;1.60;;;231.30;2252.80;;;;;;5117121;28;20336;-65
2021/01/04 11:40:25;;;;;;;8.82;1.50;;;231.20;2252.80;;;;;;5116953;28;20032;-63
2021/01/04 11:42:51;;;;;;;4.13;1.50;;;231.30;2252.80;;;;;;5115109;28;20336;-64
2021/01/04 11:45:19;;;;;;;5.60;1.83;;;231.10;2252.80;;;;;;5118606;28;20032;-64
2021/01/04 11:47:46;;;;;;;4.40;2.55;;;231.00;2252.80;;;;;;5118830;28;20036;-62
2021/01/04 11:50:14;;;;;;;3.22;1.85;;;231.00;2252.80;;;;;;5118439;28;20028;-64
2021/01/04 11:52:40;;;;;;;8.55;3.20;;;230.90;2252.80;;;;;;5119102;28;20153;-66
2021/01/04 11:55:10;;;;;;;6.28;3.88;;;230.80;2252.80;;;;;;5118223;28;20483;-63
2021/01/04 11:57:37;;;;;;;10.13;6.05;;;230.80;2252.80;;;;;;5118667;28;20487;-63
2021/01/04 12:00:13;;;;;;;15.07;7.15;;;230.90;2252.80;;;;;;5118436;28;20046;-64
2021/01/04 12:02:39;;;;;;;13.02;6.43;;;231.10;2252.80;;;;;;5118398;28;20030;-65
2021/01/04 12:05:06;;;;;;;7.72;4.07;;;230.90;2252.80;;;;;;5118709;28;20023;-63
2021/01/04 12:07:32;;;;;;;6.80;3.80;;;230.90;2252.80;;;;;;5117616;28;20034;-62
2021/01/04 12:09:58;;;;;;;8.60;4.95;;;230.80;2252.80;;;;;;5117815;28;20023;-62
2021/01/04 12:12:25;;;;;;;11.85;6.18;;;230.90;2252.80;;;;;;5097440;28;20027;-62
2021/01/04 12:14:51;;;;;;;7.38;4.63;;;230.90;2252.80;;;;;;5098151;28;20020;-62
2021/01/04 12:17:17;;;;;;;7.32;3.42;;;230.90;2252.80;;;;;;5097785;28;20110;-63
2021/01/04 12:19:42;;;;;;;8.63;2.53;;;231.00;2252.80;;;;;;5097549;28;20139;-62
2021/01/04 12:22:14;;;;;;;5.25;2.70;;;231.10;2252.80;;;;;;5097399;28;20028;-63
2021/01/04 12:24:40;;;;;;;3.53;1.98;;;231.30;2252.80;;;;;;5096946;28;20329;-64
2021/01/04 12:27:07;;;;;;;3.95;1.55;;;231.30;2252.80;;;;;;5097285;28;20035;-63
2021/01/04 12:29:36;;;;;;;4.45;1.75;;;231.30;2252.80;;;;;;5097461;28;20032;-64
2021/01/04 12:32:03;;;;;;;4.20;1.80;;;231.00;2252.80;;;;;;5096690;28;20401;-63
2021/01/04 12:34:29;;;;;;;2.85;1.80;;;231.00;2252.80;;;;;;5097556;28;20066;-63
2021/01/04 12:36:55;;;;;;;3.10;1.85;;;231.00;2252.80;;;;;;5097682;28;20047;-63
2021/01/04 12:39:20;;;;;;;5.47;2.58;;;231.10;2252.80;;;;;;5097570;28;20073;-63
2021/01/04 12:41:46;;;;;;;3.25;1.80;;;231.20;2252.80;;;;;;5096502;28;20040;-64
2021/01/04 12:44:14;;;;;;;5.47;1.83;;;231.30;2252.80;;;;;;5097078;28;20028;-66
2021/01/04 12:46:48;;;;;;;6.45;2.38;;;256.00;2252.80;;;;;;5097533;28;20048;-66
2021/01/04 12:49:18;;;;;;;3.80;2.30;;;256.00;2252.80;;;;;;5097209;28;20417;-65
2021/01/04 12:51:49;;;;;;;6.70;3.78;;;256.00;2252.80;;;;;;5096341;28;20413;-66
2021/01/04 12:54:17;;;;;;;5.10;2.80;;;231.10;2252.80;;;;;;5096128;28;20024;-66
2021/01/04 12:56:47;;;;;;;3.55;1.85;;;231.00;2252.80;;;;;;5103483;28;20051;-67
2021/01/04 12:59:16;;;;;;;4.25;1.60;;;230.90;2252.80;;;;;;5117110;28;20028;-66
2021/01/04 13:01:42;;;;;;;;;;;230.80;2252.80;;;;;;5118114;28;20031;-67